createdAt,value
2017-12-15T00:02:22.042Z,22.00
2017-12-15T00:04:50.398Z,22.00
2017-12-15T00:07:18.058Z,21.90
2017-12-15T00:09:45.642Z,21.90
2017-12-15T00:12:13.194Z,22.00
2017-12-15T00:14:41.532Z,21.90
2017-12-15T00:17:09.101Z,21.90
2017-12-15T00:19:38.188Z,21.90
2017-12-15T00:22:05.798Z,21.90
2017-12-15T00:24:33.388Z,21.90
2017-12-15T00:27:00.958Z,21.90
2017-12-15T00:29:28.708Z,21.90
2017-12-15T00:31:56.270Z,21.90
2017-12-15T00:34:23.871Z,21.90
2017-12-15T00:36:51.426Z,21.90
2017-12-15T00:39:19.000Z,21.80
2017-12-15T00:41:47.360Z,21.80
2017-12-15T00:44:14.908Z,21.80
2017-12-15T00:46:42.476Z,21.80
2017-12-15T00:49:10.032Z,21.80
2017-12-15T00:51:37.596Z,21.80
2017-12-15T00:54:05.283Z,21.80
2017-12-15T00:56:33.616Z,21.80
2017-12-15T00:59:01.210Z,21.80
2017-12-15T01:01:28.755Z,21.80
2017-12-15T01:03:56.362Z,21.80
2017-12-15T01:06:23.944Z,21.80
2017-12-15T01:08:51.518Z,21.80
2017-12-15T01:11:19.112Z,21.80
2017-12-15T01:13:46.692Z,21.80
2017-12-15T01:16:15.020Z,21.80
2017-12-15T01:18:43.066Z,21.70
2017-12-15T01:21:10.607Z,21.70
2017-12-15T01:23:38.377Z,21.80
2017-12-15T01:26:05.944Z,21.70
2017-12-15T01:28:33.488Z,21.80
2017-12-15T01:31:01.098Z,21.70
2017-12-15T01:33:30.184Z,21.70
2017-12-15T01:35:57.742Z,21.70
2017-12-15T01:38:25.320Z,21.70
2017-12-15T01:40:52.858Z,21.70
2017-12-15T01:43:20.585Z,21.70
2017-12-15T01:45:48.144Z,21.70
2017-12-15T01:48:15.789Z,21.70
2017-12-15T01:50:44.158Z,21.70
2017-12-15T01:53:12.621Z,21.70
2017-12-15T01:55:41.697Z,21.70
2017-12-15T01:58:09.286Z,21.70
2017-12-15T02:00:36.895Z,21.70
2017-12-15T02:03:04.589Z,21.70
2017-12-15T02:05:32.263Z,21.70
2017-12-15T02:08:00.030Z,21.70
2017-12-15T02:10:27.626Z,21.70
2017-12-15T02:12:55.184Z,21.70
2017-12-15T02:15:22.749Z,21.70
2017-12-15T02:17:50.307Z,21.70
2017-12-15T02:20:17.859Z,21.70
2017-12-15T02:22:46.209Z,21.70
2017-12-15T02:25:13.802Z,21.70
2017-12-15T02:27:42.215Z,21.70
2017-12-15T02:30:09.832Z,21.70
2017-12-15T02:32:38.226Z,21.70
2017-12-15T02:35:06.544Z,21.70
2017-12-15T02:37:34.097Z,21.70
2017-12-15T02:40:01.680Z,21.70
2017-12-15T02:42:29.271Z,21.70
2017-12-15T02:44:57.592Z,21.60
2017-12-15T02:47:25.181Z,21.70
2017-12-15T02:49:54.369Z,21.70
2017-12-15T02:52:21.937Z,21.60
2017-12-15T02:54:49.605Z,21.70
2017-12-15T02:57:18.021Z,21.70
2017-12-15T02:59:45.625Z,21.60
2017-12-15T03:02:13.341Z,21.60
2017-12-15T03:04:40.931Z,21.60
2017-12-15T03:07:08.501Z,21.70
2017-12-15T03:09:36.063Z,21.70
2017-12-15T03:12:03.663Z,21.60
2017-12-15T03:14:31.995Z,21.70
2017-12-15T03:16:59.633Z,21.60
2017-12-15T03:19:27.423Z,21.70
2017-12-15T03:21:54.951Z,21.60
2017-12-15T03:24:22.599Z,21.60
2017-12-15T03:26:50.935Z,21.70
2017-12-15T03:29:18.503Z,21.60
2017-12-15T03:31:46.050Z,21.70
2017-12-15T03:34:13.667Z,21.60
2017-12-15T03:36:41.408Z,21.50
2017-12-15T03:39:09.781Z,21.60
2017-12-15T03:41:37.349Z,21.60
2017-12-15T03:44:05.718Z,21.60
2017-12-15T03:46:34.125Z,21.60
2017-12-15T03:49:01.697Z,21.60
2017-12-15T03:51:29.367Z,21.60
2017-12-15T03:53:56.959Z,21.60
2017-12-15T03:56:24.511Z,21.60
2017-12-15T03:58:52.249Z,21.60
2017-12-15T04:01:19.789Z,21.60
2017-12-15T04:03:47.411Z,21.60
2017-12-15T04:06:14.925Z,21.60
2017-12-15T04:08:42.561Z,21.60
2017-12-15T04:11:10.121Z,21.60
2017-12-15T04:13:37.795Z,21.60
2017-12-15T04:16:05.357Z,21.60
2017-12-15T04:18:32.917Z,21.60
2017-12-15T04:21:00.511Z,21.60
2017-12-15T04:23:28.055Z,21.60
2017-12-15T04:25:56.599Z,21.60
2017-12-15T04:28:24.255Z,21.60
2017-12-15T04:30:52.551Z,21.60
2017-12-15T04:33:20.249Z,21.60
2017-12-15T04:35:47.795Z,21.60
2017-12-15T04:38:15.396Z,21.60
2017-12-15T04:40:43.065Z,21.60
2017-12-15T04:43:11.404Z,21.60
2017-12-15T04:45:38.983Z,21.60
2017-12-15T04:48:07.317Z,21.60
2017-12-15T04:50:35.025Z,21.60
2017-12-15T04:53:02.958Z,21.60
2017-12-15T04:55:31.266Z,21.60
2017-12-15T04:57:58.815Z,21.60
2017-12-15T05:00:26.410Z,21.60
2017-12-15T05:02:54.751Z,21.60
2017-12-15T05:05:22.338Z,21.60
2017-12-15T05:07:49.901Z,21.60
2017-12-15T05:10:17.476Z,21.60
2017-12-15T05:12:45.922Z,21.60
2017-12-15T05:15:13.477Z,21.50
2017-12-15T05:17:41.090Z,21.60
2017-12-15T05:20:08.625Z,21.60
2017-12-15T05:22:36.937Z,21.60
2017-12-15T05:25:04.710Z,21.50
2017-12-15T05:27:32.346Z,21.60
2017-12-15T05:30:00.020Z,21.60
2017-12-15T05:32:27.574Z,21.50
2017-12-15T05:34:55.192Z,21.50
2017-12-15T05:37:23.533Z,21.50
2017-12-15T05:39:51.089Z,21.50
2017-12-15T05:42:18.660Z,21.50
2017-12-15T05:44:46.211Z,21.60
2017-12-15T05:47:13.895Z,21.60
2017-12-15T05:49:41.470Z,21.50
2017-12-15T05:52:09.034Z,21.50
2017-12-15T05:54:37.413Z,21.60
2017-12-15T05:57:04.978Z,21.60
2017-12-15T05:59:32.544Z,21.60
2017-12-15T06:02:00.874Z,21.60
2017-12-15T06:04:28.576Z,21.60
2017-12-15T06:06:57.142Z,21.60
2017-12-15T06:09:24.742Z,21.70
2017-12-15T06:11:53.106Z,21.70
2017-12-15T06:14:21.418Z,21.70
2017-12-15T06:16:48.978Z,21.70
2017-12-15T06:19:16.550Z,21.70
2017-12-15T06:21:44.103Z,21.70
2017-12-15T06:24:11.802Z,21.70
2017-12-15T06:26:39.380Z,21.70
2017-12-15T06:29:07.800Z,21.70
2017-12-15T06:31:35.474Z,21.70
2017-12-15T06:34:03.025Z,21.70
2017-12-15T06:36:30.683Z,21.70
2017-12-15T06:38:58.244Z,21.70
2017-12-15T06:41:25.786Z,21.70
2017-12-15T06:43:53.388Z,21.70
2017-12-15T06:46:20.993Z,21.70
2017-12-15T06:48:49.354Z,21.60
2017-12-15T06:51:17.171Z,21.70
2017-12-15T06:53:44.717Z,21.70
2017-12-15T06:56:12.416Z,21.70
2017-12-15T06:58:39.978Z,21.80
2017-12-15T07:01:07.569Z,21.70
2017-12-15T07:03:35.139Z,21.80
2017-12-15T07:06:03.482Z,21.80
2017-12-15T07:08:31.034Z,21.80
2017-12-15T07:10:58.642Z,21.70
2017-12-15T07:13:26.960Z,21.70
2017-12-15T07:15:54.510Z,21.70
2017-12-15T07:18:22.180Z,21.70
2017-12-15T07:20:49.762Z,21.70
2017-12-15T07:23:17.352Z,21.70
2017-12-15T07:25:45.700Z,21.60
2017-12-15T07:28:13.252Z,21.60
2017-12-15T07:30:40.862Z,21.60
2017-12-15T07:33:08.416Z,21.60
2017-12-15T07:35:36.778Z,21.50
2017-12-15T07:38:05.082Z,21.50
2017-12-15T07:40:32.640Z,21.50
2017-12-15T07:43:00.216Z,21.50
2017-12-15T07:45:27.749Z,21.50
2017-12-15T07:47:56.049Z,21.50
2017-12-15T07:50:23.814Z,21.40
2017-12-15T07:52:51.394Z,21.50
2017-12-15T07:55:18.986Z,21.40
2017-12-15T07:57:46.526Z,21.40
2017-12-15T08:00:14.104Z,21.10
2017-12-15T08:02:41.657Z,21.40
2017-12-15T08:05:09.243Z,21.40
2017-12-15T08:07:37.554Z,21.40
2017-12-15T08:10:05.215Z,21.40
2017-12-15T08:12:32.776Z,21.30
2017-12-15T08:15:00.326Z,21.40
2017-12-15T08:17:27.898Z,21.40
2017-12-15T08:19:56.425Z,21.30
2017-12-15T08:22:25.564Z,21.30
2017-12-15T08:24:53.290Z,21.30
2017-12-15T08:27:20.963Z,21.30
2017-12-15T08:29:49.300Z,21.30
2017-12-15T08:32:16.988Z,21.30
2017-12-15T08:34:44.546Z,21.40
2017-12-15T08:37:12.152Z,21.40
2017-12-15T08:39:39.709Z,21.50
2017-12-15T08:42:07.276Z,21.50
2017-12-15T08:44:34.839Z,21.50
2017-12-15T08:47:02.421Z,21.60
2017-12-15T08:49:30.075Z,21.60
2017-12-15T08:51:57.648Z,21.60
2017-12-15T08:54:25.207Z,21.70
2017-12-15T08:56:52.780Z,21.70
2017-12-15T08:59:20.335Z,21.70
2017-12-15T09:01:47.959Z,21.70
2017-12-15T09:04:21.045Z,21.70
2017-12-15T09:06:48.606Z,21.70
2017-12-15T09:09:16.155Z,21.70
2017-12-15T09:11:43.731Z,21.70
2017-12-15T09:14:11.388Z,21.70
2017-12-15T09:16:39.003Z,21.70
2017-12-15T09:19:07.317Z,21.70
2017-12-15T09:21:34.979Z,21.70
2017-12-15T09:24:02.662Z,21.70
2017-12-15T09:26:30.262Z,21.70
2017-12-15T09:28:58.683Z,21.70
2017-12-15T09:31:26.236Z,21.70
2017-12-15T09:33:53.822Z,21.70
2017-12-15T09:36:21.383Z,21.70
2017-12-15T09:38:48.953Z,21.70
2017-12-15T09:41:17.560Z,21.80
2017-12-15T09:43:45.137Z,21.80
2017-12-15T09:46:13.463Z,21.80
2017-12-15T09:48:41.032Z,21.80
2017-12-15T09:51:08.655Z,21.80
2017-12-15T09:53:36.187Z,21.80
2017-12-15T09:56:04.595Z,21.80
2017-12-15T09:58:32.180Z,21.70
2017-12-15T10:00:59.775Z,21.80
2017-12-15T10:03:27.483Z,21.80
2017-12-15T10:05:55.069Z,21.80
2017-12-15T10:08:22.735Z,21.80
2017-12-15T10:10:50.282Z,21.70
2017-12-15T10:13:17.837Z,21.70
2017-12-15T10:15:45.466Z,21.70
2017-12-15T10:18:13.060Z,21.70
2017-12-15T10:20:40.655Z,21.70
2017-12-15T10:23:08.242Z,21.80
2017-12-15T10:25:36.641Z,21.80
2017-12-15T10:28:04.306Z,21.70
2017-12-15T10:30:31.863Z,21.80
2017-12-15T10:32:59.421Z,21.80
2017-12-15T10:35:27.155Z,21.80
2017-12-15T10:37:54.735Z,21.80
2017-12-15T10:40:22.374Z,21.80
2017-12-15T10:42:50.777Z,21.80
2017-12-15T10:45:18.379Z,21.80
2017-12-15T10:47:46.004Z,21.80
2017-12-15T10:50:13.575Z,21.80
2017-12-15T10:52:41.197Z,21.80
2017-12-15T10:55:09.546Z,21.80
2017-12-15T10:57:37.281Z,21.80
2017-12-15T11:00:04.876Z,21.80
2017-12-15T11:02:32.621Z,21.80
2017-12-15T11:05:00.197Z,21.80
2017-12-15T11:07:27.790Z,21.70
2017-12-15T11:09:56.095Z,21.70
2017-12-15T11:12:23.778Z,21.70
2017-12-15T11:14:51.407Z,21.70
2017-12-15T11:17:18.991Z,21.80
2017-12-15T11:19:46.564Z,21.70
2017-12-15T11:22:14.127Z,21.80
2017-12-15T11:24:41.962Z,21.70
2017-12-15T11:27:09.562Z,21.80
2017-12-15T11:29:37.112Z,21.80
2017-12-15T11:32:04.793Z,21.70
2017-12-15T11:34:32.377Z,21.70
2017-12-15T11:37:00.712Z,21.70
2017-12-15T11:39:28.286Z,21.70
2017-12-15T11:41:55.949Z,21.70
2017-12-15T11:44:23.527Z,21.70
2017-12-15T11:46:51.965Z,21.60
2017-12-15T11:49:19.579Z,21.60
2017-12-15T11:51:47.940Z,21.60
2017-12-15T11:54:16.277Z,21.60
2017-12-15T11:56:43.885Z,21.60
2017-12-15T11:59:12.208Z,21.60
2017-12-15T12:01:39.769Z,21.60
2017-12-15T12:04:07.414Z,21.60
2017-12-15T12:06:35.837Z,21.60
2017-12-15T12:09:03.375Z,21.60
2017-12-15T12:11:30.948Z,21.60
2017-12-15T12:13:58.475Z,21.60
2017-12-15T12:16:26.034Z,21.60
2017-12-15T12:18:53.693Z,21.60
2017-12-15T12:21:21.267Z,21.60
2017-12-15T12:23:48.840Z,21.60
2017-12-15T12:26:16.466Z,21.60
2017-12-15T12:28:44.020Z,21.60
2017-12-15T12:31:11.609Z,21.60
2017-12-15T12:33:39.191Z,21.60
2017-12-15T12:36:06.816Z,21.60
2017-12-15T12:38:34.394Z,21.60
2017-12-15T12:41:03.730Z,21.60
2017-12-15T12:43:31.372Z,21.60
2017-12-15T12:45:58.958Z,21.60
2017-12-15T12:48:26.548Z,21.60
2017-12-15T12:50:54.088Z,21.60
2017-12-15T12:53:22.422Z,21.60
2017-12-15T12:55:50.040Z,21.60
2017-12-15T12:58:17.554Z,21.60
2017-12-15T13:00:45.138Z,21.60
2017-12-15T13:03:13.526Z,21.60
2017-12-15T13:05:41.936Z,21.60
2017-12-15T13:08:09.526Z,21.60
2017-12-15T13:10:37.097Z,21.60
2017-12-15T13:13:04.674Z,21.50
2017-12-15T13:15:33.065Z,21.60
2017-12-15T13:18:01.374Z,21.60
2017-12-15T13:20:28.998Z,21.50
2017-12-15T13:22:57.408Z,21.50
2017-12-15T13:25:25.006Z,21.50
2017-12-15T13:27:52.616Z,21.50
2017-12-15T13:30:20.200Z,21.60
2017-12-15T13:32:47.777Z,21.60
2017-12-15T13:35:15.418Z,21.60
2017-12-15T13:37:43.062Z,21.60
2017-12-15T13:40:10.641Z,21.60
2017-12-15T13:42:38.200Z,21.60
2017-12-15T13:45:05.812Z,21.60
2017-12-15T13:47:34.143Z,21.60
2017-12-15T13:50:01.726Z,21.50
2017-12-15T13:52:29.291Z,21.60
2017-12-15T13:54:56.941Z,21.60
2017-12-15T13:57:24.456Z,21.60
2017-12-15T13:59:52.012Z,21.60
2017-12-15T14:02:19.602Z,21.50
2017-12-15T14:04:47.156Z,21.60
2017-12-15T14:07:14.805Z,21.50
2017-12-15T14:09:42.334Z,21.60
2017-12-15T14:12:10.670Z,21.50
2017-12-15T14:14:38.208Z,21.50
2017-12-15T14:17:05.772Z,21.50
2017-12-15T14:19:33.426Z,21.50
2017-12-15T14:22:01.014Z,21.60
2017-12-15T14:24:28.596Z,21.60
2017-12-15T14:26:56.176Z,21.50
2017-12-15T14:29:24.506Z,21.50
2017-12-15T14:31:52.246Z,21.50
2017-12-15T14:34:19.894Z,21.50
2017-12-15T14:36:47.566Z,21.60
2017-12-15T14:39:15.136Z,21.70
2017-12-15T14:41:42.686Z,21.70
2017-12-15T14:44:10.258Z,21.70
2017-12-15T14:46:37.810Z,21.70
2017-12-15T14:49:05.412Z,21.70
2017-12-15T14:51:33.026Z,21.70
2017-12-15T14:54:00.642Z,21.70
2017-12-15T14:56:28.248Z,21.70
2017-12-15T14:58:55.846Z,21.80
2017-12-15T15:01:23.419Z,21.70
2017-12-15T15:03:51.124Z,21.80
2017-12-15T15:06:18.735Z,21.80
2017-12-15T15:08:46.280Z,21.80
2017-12-15T15:11:13.852Z,21.80
2017-12-15T15:13:42.970Z,21.80
2017-12-15T15:16:11.383Z,21.90
2017-12-15T15:18:39.006Z,21.80
2017-12-15T15:21:07.336Z,21.90
2017-12-15T15:23:34.986Z,21.90
2017-12-15T15:26:02.864Z,21.90
2017-12-15T15:28:30.436Z,21.90
2017-12-15T15:30:58.009Z,21.90
2017-12-15T15:33:25.606Z,21.90
2017-12-15T15:35:53.918Z,21.80
2017-12-15T15:38:21.530Z,21.80
2017-12-15T15:40:49.150Z,21.80
2017-12-15T15:43:16.760Z,21.80
2017-12-15T15:45:45.041Z,21.90
2017-12-15T15:48:12.668Z,21.90
2017-12-15T15:50:40.209Z,21.90
2017-12-15T15:53:07.776Z,22.00
2017-12-15T15:55:35.339Z,22.00
2017-12-15T15:58:02.973Z,22.00
2017-12-15T16:00:30.538Z,21.90
2017-12-15T16:02:58.230Z,22.00
2017-12-15T16:05:25.795Z,22.00
2017-12-15T16:07:53.518Z,22.00
2017-12-15T16:10:21.155Z,22.10
2017-12-15T16:12:48.670Z,22.10
2017-12-15T16:15:16.255Z,22.10
2017-12-15T16:17:44.710Z,22.00
2017-12-15T16:20:12.311Z,22.00
2017-12-15T16:22:39.879Z,22.10
2017-12-15T16:25:07.468Z,22.10
2017-12-15T16:27:35.076Z,22.10
2017-12-15T16:30:03.427Z,22.20
2017-12-15T16:32:30.987Z,22.20
2017-12-15T16:34:58.641Z,22.20
2017-12-15T16:37:26.223Z,22.30
2017-12-15T16:39:53.833Z,22.30
2017-12-15T16:42:21.456Z,22.30
2017-12-15T16:44:50.093Z,22.20
2017-12-15T16:47:17.648Z,22.20
2017-12-15T16:49:45.205Z,22.20
2017-12-15T16:52:12.991Z,22.10
2017-12-15T16:54:40.676Z,22.10
2017-12-15T16:57:08.279Z,22.10
2017-12-15T16:59:35.861Z,22.10
2017-12-15T17:02:03.422Z,22.10
2017-12-15T17:04:31.009Z,22.10
2017-12-15T17:06:58.571Z,22.10
2017-12-15T17:09:26.177Z,22.10
2017-12-15T17:11:53.825Z,22.10
2017-12-15T17:14:22.171Z,22.10
2017-12-15T17:16:49.705Z,22.10
2017-12-15T17:19:17.277Z,22.20
2017-12-15T17:21:44.853Z,22.20
2017-12-15T17:24:12.446Z,22.20
2017-12-15T17:26:40.025Z,22.20
2017-12-15T17:29:07.603Z,22.20
2017-12-15T17:31:35.387Z,22.10
2017-12-15T17:34:02.942Z,22.10
2017-12-15T17:36:30.489Z,22.10
2017-12-15T17:38:58.099Z,22.00
2017-12-15T17:41:26.407Z,21.90
2017-12-15T17:43:54.003Z,22.00
2017-12-15T17:46:21.575Z,21.90
2017-12-15T17:48:49.143Z,21.90
2017-12-15T17:51:17.533Z,21.80
2017-12-15T17:53:45.923Z,21.80
2017-12-15T17:56:14.449Z,21.80
2017-12-15T17:58:42.017Z,21.80
2017-12-15T18:01:09.717Z,21.80
2017-12-15T18:03:38.047Z,21.70
2017-12-15T18:06:05.625Z,21.70
2017-12-15T18:08:33.181Z,21.70
2017-12-15T18:11:00.728Z,21.70
2017-12-15T18:13:28.303Z,21.70
2017-12-15T18:15:55.916Z,21.70
2017-12-15T18:18:23.481Z,21.60
2017-12-15T18:20:51.094Z,21.70
2017-12-15T18:23:18.653Z,21.70
2017-12-15T18:25:46.259Z,21.70
2017-12-15T18:28:13.810Z,21.60
2017-12-15T18:30:41.423Z,21.70
2017-12-15T18:33:08.991Z,21.70
2017-12-15T18:35:36.619Z,21.70
2017-12-15T18:38:04.212Z,21.70
2017-12-15T18:40:31.803Z,21.70
2017-12-15T18:42:59.379Z,21.80
2017-12-15T18:45:26.971Z,21.80
2017-12-15T18:47:54.583Z,21.70
2017-12-15T18:50:22.164Z,21.70
2017-12-15T18:52:49.715Z,21.80
2017-12-15T18:55:17.303Z,21.70
2017-12-15T18:57:44.874Z,21.70
2017-12-15T19:00:12.507Z,21.80
2017-12-15T19:02:40.065Z,21.50
2017-12-15T19:05:07.650Z,21.80
2017-12-15T19:07:35.339Z,21.80
2017-12-15T19:10:02.981Z,21.70
2017-12-15T19:12:31.409Z,21.70
2017-12-15T19:14:59.747Z,21.70
2017-12-15T19:17:28.132Z,21.80
2017-12-15T19:19:55.740Z,21.70
2017-12-15T19:22:23.291Z,21.80
2017-12-15T19:24:50.916Z,21.80
2017-12-15T19:27:18.467Z,21.80
2017-12-15T19:29:46.900Z,21.80
2017-12-15T19:32:14.478Z,21.80
2017-12-15T19:34:42.137Z,21.80
2017-12-15T19:37:09.758Z,21.80
2017-12-15T19:39:37.401Z,21.80
2017-12-15T19:42:05.902Z,21.70
2017-12-15T19:44:34.282Z,21.70
2017-12-15T19:47:02.672Z,21.70
2017-12-15T19:49:30.330Z,21.70
2017-12-15T19:51:58.039Z,21.70
2017-12-15T19:54:25.692Z,21.70
2017-12-15T19:56:53.536Z,21.70
2017-12-15T19:59:21.439Z,21.70
2017-12-15T20:01:49.371Z,21.70
2017-12-15T20:04:17.150Z,21.70
2017-12-15T20:06:45.109Z,21.70
2017-12-15T20:09:12.972Z,21.70
2017-12-15T20:11:41.043Z,21.70
2017-12-15T20:14:09.020Z,21.70
2017-12-15T20:16:37.492Z,21.70
2017-12-15T20:19:05.365Z,21.70
2017-12-15T20:21:33.226Z,21.70
2017-12-15T20:24:01.094Z,21.60
2017-12-15T20:26:29.062Z,21.70
2017-12-15T20:28:56.930Z,21.70
2017-12-15T20:31:24.896Z,21.70
2017-12-15T20:33:52.499Z,21.70
2017-12-15T20:36:20.206Z,21.70
2017-12-15T20:38:48.191Z,21.70
2017-12-15T20:41:17.904Z,21.70
2017-12-15T20:43:45.972Z,21.70
2017-12-15T20:46:13.801Z,21.60
2017-12-15T20:48:41.705Z,21.60
2017-12-15T20:51:09.780Z,21.70
2017-12-15T20:53:38.768Z,21.60
2017-12-15T20:56:07.455Z,21.60
2017-12-15T20:58:35.325Z,21.60
2017-12-15T21:01:03.186Z,21.70
2017-12-15T21:03:31.879Z,21.60
2017-12-15T21:06:00.049Z,21.60
2017-12-15T21:08:28.638Z,21.70
2017-12-15T21:10:56.307Z,21.60
2017-12-15T21:13:24.262Z,21.60
2017-12-15T21:15:51.894Z,21.60
2017-12-15T21:18:20.290Z,21.60
2017-12-15T21:20:47.934Z,21.60
2017-12-15T21:23:16.254Z,21.60
2017-12-15T21:25:43.872Z,21.60
2017-12-15T21:28:12.207Z,21.60
2017-12-15T21:30:39.870Z,21.60
2017-12-15T21:33:07.470Z,21.60
2017-12-15T21:35:35.794Z,21.60
2017-12-15T21:38:03.366Z,21.60
2017-12-15T21:40:30.934Z,21.60
2017-12-15T21:42:58.500Z,21.60
2017-12-15T21:45:26.120Z,21.60
2017-12-15T21:47:53.691Z,21.60
2017-12-15T21:50:21.442Z,21.60
2017-12-15T21:52:48.978Z,21.60
2017-12-15T21:55:17.313Z,21.60
2017-12-15T21:57:44.954Z,21.60
2017-12-15T22:00:12.491Z,21.70
2017-12-15T22:02:40.260Z,21.70
2017-12-15T22:05:07.858Z,21.70
2017-12-15T22:07:36.540Z,21.70
2017-12-15T22:10:04.088Z,21.60
2017-12-15T22:12:31.681Z,21.70
2017-12-15T22:15:00.040Z,21.60
2017-12-15T22:17:27.608Z,21.70
2017-12-15T22:19:55.214Z,21.60
2017-12-15T22:22:22.761Z,21.60
2017-12-15T22:24:51.109Z,21.70
2017-12-15T22:27:18.674Z,21.60
2017-12-15T22:29:46.222Z,21.60
2017-12-15T22:32:14.613Z,21.70
2017-12-15T22:34:42.172Z,21.70
2017-12-15T22:37:09.744Z,21.70
2017-12-15T22:39:37.309Z,21.70
2017-12-15T22:42:05.654Z,21.60
2017-12-15T22:44:33.204Z,21.60
2017-12-15T22:47:00.789Z,21.60
2017-12-15T22:49:28.316Z,21.70
2017-12-15T22:51:55.908Z,21.60
2017-12-15T22:54:23.500Z,21.70
2017-12-15T22:56:51.797Z,21.70
2017-12-15T22:59:19.556Z,21.60
2017-12-15T23:01:47.093Z,21.60
2017-12-15T23:04:15.482Z,21.60
2017-12-15T23:06:43.032Z,21.60
2017-12-15T23:09:10.671Z,21.60
2017-12-15T23:11:38.230Z,21.60
2017-12-15T23:14:05.778Z,21.60
2017-12-15T23:16:33.384Z,21.60
2017-12-15T23:19:00.944Z,21.60
2017-12-15T23:21:28.631Z,21.60
2017-12-15T23:23:56.222Z,21.60
2017-12-15T23:26:23.828Z,21.60
2017-12-15T23:28:51.390Z,21.60
2017-12-15T23:31:19.301Z,21.60
2017-12-15T23:33:46.900Z,21.60
2017-12-15T23:36:15.254Z,21.60
2017-12-15T23:38:42.822Z,21.60
2017-12-15T23:41:11.320Z,21.60
2017-12-15T23:43:39.660Z,21.60
2017-12-15T23:46:07.228Z,21.60
2017-12-15T23:48:34.786Z,21.60
2017-12-15T23:51:02.361Z,21.60
2017-12-15T23:53:30.666Z,21.60
2017-12-15T23:56:10.311Z,21.60
2017-12-15T23:58:37.877Z,21.60
